India Meteorological Department
Airport METARs
Date : 13-07-2020
Sl. # Airport METAR
1 Agartala VEAT 130630Z 17003KT 5000 BR FEW010 SCT018 BKN090 31/28 Q1002 NOSIG=
2 Ahmedabad VAAH 130630Z 28003KT 5000 HZ SCT020 BKN080 32/26 Q1003 NOSIG=
3 Allahabad VEAB 130630Z 31005KT 6000 SCT025 BKN200 33/28 Q1000 NOSIG=
4 Amritsar VIAR 130630Z VRB02KT 4500 HZ FEW040 32/25 Q1000 NOSIG=
5 Aurangabad VAAU 130600Z 29003KT 6000 SCT020 SCT025 29/22 Q1007 NOSIG=
6 Bangalore VOBL 130630Z 31006KT 270V060 9999 SCT015 SCT020 26/20 Q1011 NOSIG=
7 Baroda VABO 130630Z 23005KT 5000 HZ FEW020 SCT025 BKN080 32/26 Q1002 NOSIG=
8 Bhopal VABP 130630Z 27008KT 6000 BKN020 BKN100 29/25 Q1006 NOSIG=
9 Bhubaneswar VEBS 130630Z 25005KT 5000 -RA BKN018 BKN100 29/28 Q1002 NOSIG=
10 Bhuntar VIBR 130600Z 16004KT 6000 FEW020TCU 30/20 Q1005=
11 Chennai VOMM 130630Z 25007KT 7000 FEW020 BKN100 31/26 Q1005 NOSIG=
12 Coimbatore VOCB 130630Z 20006KT 6000 SCT015 29/22 Q1009 NOSIG=
13 Colombo VCBI 130640Z 23007KT 9999 FEW018 FEW020CB 29/27 Q1007 NOSIG RMK E=
14 Delhi VIDP 130630Z 28007KT 5000 HZ SCT100 34/22 Q1000 NOSIG=
15 Dehradun VIDN 130630Z 19003KT 6000 SCT030 32/23 Q1001 =
16 Gauhati VEGT 130630Z 30009KT 4500 BR SCT018 FEW025CB BKN090 30/30 Q1001 NOSIG=
17 Gaya VEGY 130630Z 32004KT 5000 HZ SCT018 SCT025 FEW030CB BKN100 34/26 Q1000 TEMPO 3000 -TSRA=
18 Goa VOGO 130530Z 28007KT 4000 -RA FEW006 SCT010 OVC080 25/25 Q1007 TEMPO 1500 RA/SHRA=
19 Hyderabad VOHS 130630Z 30006KT 6000 SCT015 SCT025 BKN100 29/25 Q1008 N0SIG=
20 Indore VAID 130600Z 27005KT 6000 FEW020 SCT025 30/23 Q1006 NOSIG=
21 Jaipur VIJP 130630Z 27009KT 5000 HZ SCT030 BKN100 32/26 Q1002 NOSIG=
22 Khajuraho VEKO 130600Z 27003KT 6000 SCT020 SCT025 34/27 Q1001=
23 Kochi VOCI 130630Z 30007KT 5000 BR FEW015 BKN080 30/25 Q1007 NOSIG=
24 Kolkata VECC 130630Z 16004KT 3500 HZ SCT018 BKN100 32/30 Q1000 NOSIG=
25 Kozhikode VOCL 130630Z 33006KT 6000 SCT012 BKN080 28/24 Q1007 NOSIG=
26 Lucknow VILK 130630Z 00000KT 5000 HZ SCT018 SCT025 BKN200 33/25 Q0999 NOSIG=
27 Madurai VOMD 130630Z 31005KT 9000 FEW020 SCT090 33/23 Q1006 NOSIG=
28 Mohanbari VEMN 130630Z 02006KT 5000 HZ SCT016 BKN100 31/27 Q1001 NOSIG=
29 Mumbai VABB 130630Z 21009KT 0300 R27/0400 +RA SCT008 SCT015 FEW030CB OVC080 26/26 Q1004 TEMPO 0150 +RA=
30 Nagpur VANP 130630Z 30005KT 5000 HZ FEW018 SCT025 31/23 Q1004 NOSIG=
31 Ozar VAOZ 130630Z 25008KT 6000 SCT020 SCT030 27/24 Q1008 TEMPO 5000 RA=
32 Pantnagar VIPT 130630Z VRB03KT 5000 HZ FEW020 33/27 Q1000=
33 Patna VEPT 130630Z 11006KT 3000 BR SCT015 BKN090 27/26 Q0999 NOSIG=
34 Pathankot VIPK 130630Z 30005KT 4500 HZ FEW015 SCT020 32/26 Q1001 BECMG 5000=
35 Raipur VERP 130600Z 25009KT 4000 HZ FEW018 SCT020 BKN090 30/25 Q1004 NOSIG=
36 Safdarjung VIDD 130630Z 34005KT 4500 HZ FEW035 SCT100 35/24 Q1000 NOSIG=
37 Shimla VISM 130700Z 29006KT 6000 FEW030 26/20 Q1010=
38 Ranchi VERC 130630Z 05004KT 3500 HZ SCT018 FEW030CB BKN100 28/24 Q1004 NOSIG=
39 Trichy VOTR 130630Z 28008KT 6000 FEW016 SCT100 34/23 Q1006 NOSIG=
40 Trivandrum VOTV 130630Z 30003KT 6000 FEW015 SCT080 30/25 Q1007 NOSIG=
41 Udaipur VAUD 130630Z 00000KT 5000 HZ SCT030 SCT035 30/24 Q1004 NOSIG=
42 Varanasi VEBN 130530Z 28006KT 5000 HZ SCT025 BKN100 32/25 Q1000 NOSIG=
43 Vizag VOVZ 130630Z 28005KT 6000 FEW018 SCT080 34/24 Q1002 NOSIG =
44 Male VRMM 130600Z 32005KT 9999 FEW017 FEW018CB BKN110 29/25 Q1008 CB E TEMPO 5000 -SHRA=
45 Gan VRMG 130600Z 05005KT 9999 FEW018 SCT270 32/26 Q1008 NOSIG=
46 Kathmandu VNKT 130650Z 18004KT 8000 FEW010 SCT030 BKN100 28/20 Q1008 NOSIG=
47 Dhaka VGHS 130630Z 12004KT 4000 HZ SCT015 BKN100 31/26 Q1001 NOSIG=
48 Colombo VCBI 130640Z 23007KT 9999 FEW018 FEW020CB 29/27 Q1007 NOSIG RMK E=
49 Karachi OPKC 130630Z 24010KT 5000 FU SCT020 BKN030 34/24 Q1000 NOSIG=
50 Lahore OPLA 130625Z 30006KT 6000 FEW100 34/22 Q1000 RMK QFE972 RMK A29.54=
51 Leh VILH 130630Z 25005KT 6000 FEW070 24/-9 Q1019 NOSIG=
52 Sri Nagar VISR 130630Z 26006KT 6000 FEW025 FEW030TCU BKN090 28/16 Q1012 TEMPO TS=
53 Jammu VIJU 130630Z 33003KT 6000 FEW020 SCT025 33/25 Q1001 NOSIG=
54 Jodhpur VIJO 130630Z 30006KT 6000 FEW020 SCT030 34/22 Q1002 NOSIG=
55 Jaisalmer VIJR 130630Z 20009KT 6000 FEW030 35/23 Q1000 NOSIG=
56 Bhuj-Rudra VABJ 130630Z 24004KT 6000 FEW015 SCT025 34/25 Q1002 NOSIG=
57 Gorakhpur VEGK 130630Z 10005KT 6000 SCT008 BKN012 BKN120 30/30 Q1000 TEMPO 4000 -RA=
58 Agra VIAG 130630Z 30007KT 6000 SCT025 SCT250 36/24 Q1000 NOSIG=
59 Bagdogra VEBD 130630Z 07006KT 6000 SCT015 SCT025 BKN080 29/25 Q1001 TEMPO 3000 RAIN=
60 Gwalior VIGR 130630Z 27010KT 6000 FEW025 SCT030 34/26 Q1001 NOSIG=
61 Pune VAPO 130630Z 25007KT 6000 SCT020 SCT090 BKN250 28/22 Q1008 TEMPO 5000 RA=
62 Chandigarh VICG 130630Z 27005KT 6000 FEW030 33/28 Q1001 NOSIG=
63 Jamnagar VAJM 130630Z 24005KT 6000 FEW020 SCT025 33/26 Q1001 TEMPO 4000 -RA BKN015=

 

--- End of List ---